Pagrindinis puslapis
METAR-TAF:

METAR-TAF

Oro uostai :

Belo Horizontė, Minas Žeraisas, Brazilija

platuma: 19-54-33S, ilguma: 043-59-21W, Aukštis: 928 m

Dabartinis oras

Ataskaita buvo paskelbta 6 valandos ir 40 minutes, ne 21:00 UTC
Vėjas 9 kt iš Rytų/Pietryčių
Temperatūra 27°C
Drėgmė 62%
Slėgis 1013 hPa
Matomumas 10 km arba daugiau
Išsisklaidę debesys ne aukštis 3000 ft

METAR: SBPR 202100Z 11009KT 9999 SCT030 27/19 Q1013

Laikas: 00:40 (03:40 UTC)


TAF: trūkstamas

Orai ataskaitas ir orų prognozės (METAR, TAF).

turimą stotys yra geltonos ir raudonos taškus žemėlapyje.

Perkelti pele per norėdami pamatyti stoties vardą.

Tada spustelėkite, norėdami matyti oro stebėjimo ir prognozės.

Norėdami pakeisti žemėlapį: spustelėkite ant žalios mygtukų su juodo kryžiaus žemyn,; žalią mygtuką su brūkšneliu, jei norite nutolinti; arba žalių rodyklių gretimoms žemėlapius.


METAR-TAF: